Terminal Aerodrome Forecast
Issued by NWS Albuquerque, NM

Home | Current Version | Previous Version | Text Only | Print | Product List | Glossary On
Versions: 1 2 3 4 5 6 7 8 9 10 11 12
206
FTUS45 KABQ 061139
TAFABQ
TAF
KABQ 061139Z 0612/0712 16007KT P6SM SCT100
     FM061700 18010KT P6SM FEW080
     FM061900 19017G27KT P6SM FEW090
     FM062100 20028G38KT P6SM SCT090
     FM070200 19012KT P6SM FEW100=

USA.gov is the U.S. government's official web portal to all federal, state and local government web resources and services.